Time;durP1;ratioP1;P1;durP2;ratioP2;P2;SDS_P1;SDS_P2;PMS_P1;PMS_P2;Temp;Humidity;BMP_temperature;BMP_pressure;BME280_temperature;BME280_humidity;BME280_pressure;Samples;Min_cycle;Max_cycle;Signal;HPM_P1;HPM_P2
2023/07/01 00:00:27;;;;;;;0.10;0.10;;;13.20;62.30;;;;;;5039929;28;20188;-54
2023/07/01 00:02:58;;;;;;;0.10;0.10;;;13.30;62.40;;;;;;5041072;28;20315;-50
2023/07/01 00:05:28;;;;;;;0.10;0.10;;;13.20;62.30;;;;;;5040272;28;20200;-54
2023/07/01 00:07:59;;;;;;;0.10;0.10;;;13.30;62.40;;;;;;5039188;28;20594;-52
2023/07/01 00:10:32;;;;;;;0.10;0.10;;;13.30;62.40;;;;;;5039746;28;20561;-51
2023/07/01 00:13:02;;;;;;;0.10;0.10;;;13.20;62.40;;;;;;5039185;28;20219;-51
2023/07/01 00:15:33;;;;;;;0.10;0.10;;;13.30;62.50;;;;;;5039497;28;20192;-53
2023/07/01 00:18:04;;;;;;;0.10;0.10;;;13.30;62.50;;;;;;5030058;28;20216;-49
2023/07/01 00:20:34;;;;;;;0.10;0.10;;;13.30;62.60;;;;;;5037949;28;20191;-46
2023/07/01 00:23:05;;;;;;;0.10;0.10;;;13.30;62.50;;;;;;5029900;28;20212;-47
2023/07/01 00:25:37;;;;;;;0.10;0.10;;;13.30;62.60;;;;;;5030026;28;20611;-50
2023/07/01 00:28:08;;;;;;;0.17;0.17;;;13.40;62.70;;;;;;5034852;28;20596;-53
2023/07/01 00:30:39;;;;;;;0.20;0.20;;;13.40;62.70;;;;;;5050639;28;20647;-57
2023/07/01 00:33:09;;;;;;;0.10;0.10;;;13.40;62.80;;;;;;5050554;28;20699;-46
2023/07/01 00:35:40;;;;;;;0.10;0.10;;;13.40;62.90;;;;;;5065328;28;20195;-50
2023/07/01 00:38:10;;;;;;;0.17;0.17;;;13.40;63.00;;;;;;5062884;28;20223;-58
2023/07/01 00:40:43;;;;;;;0.10;0.10;;;13.40;63.10;;;;;;5048301;28;20195;-59
2023/07/01 00:43:13;;;;;;;0.10;0.10;;;13.40;63.20;;;;;;5050849;28;20195;-57
2023/07/01 00:45:44;;;;;;;0.10;0.10;;;13.40;63.40;;;;;;5049981;28;20678;-55
2023/07/01 00:48:25;;;;;;;0.10;0.10;;;13.50;63.50;;;;;;5050934;28;20207;-58
2023/07/01 00:50:56;;;;;;;0.10;0.10;;;13.50;63.60;;;;;;5030052;28;20236;-56
2023/07/01 00:53:27;;;;;;;0.10;0.10;;;13.50;63.50;;;;;;5030484;28;20196;-58
2023/07/01 00:56:00;;;;;;;0.10;0.10;;;13.50;63.60;;;;;;5032719;28;20204;-53
2023/07/01 00:58:31;;;;;;;0.10;0.10;;;13.50;63.50;;;;;;5048347;28;20557;-54
2023/07/01 01:01:03;;;;;;;0.10;0.10;;;13.60;63.50;;;;;;5034443;28;20192;-58
2023/07/01 01:03:40;;;;;;;0.10;0.10;;;13.60;63.40;;;;;;5033813;28;20196;-58
2023/07/01 01:06:18;;;;;;;0.10;0.10;;;13.60;63.40;;;;;;5072615;28;20195;-55
2023/07/01 01:08:59;;;;;;;0.10;0.10;;;13.60;63.30;;;;;;5071748;28;20285;-53
2023/07/01 01:11:34;;;;;;;0.10;0.10;;;13.70;63.40;;;;;;5063193;28;20611;-55
2023/07/01 01:14:07;;;;;;;0.10;0.10;;;13.70;63.50;;;;;;5069226;28;20651;-56
2023/07/01 01:16:40;;;;;;;0.10;0.10;;;13.70;63.60;;;;;;5053579;28;20198;-55
2023/07/01 01:19:20;;;;;;;0.10;0.10;;;13.70;63.60;;;;;;5053340;28;20273;-57
2023/07/01 01:21:56;;;;;;;0.10;0.10;;;13.70;63.70;;;;;;5053029;28;20242;-57
2023/07/01 01:24:33;;;;;;;0.20;0.20;;;13.70;63.60;;;;;;5053029;28;20195;-53
2023/07/01 01:27:06;;;;;;;0.10;0.10;;;13.70;63.60;;;;;;5053199;28;20203;-52
2023/07/01 01:29:39;;;;;;;0.00;0.00;;;13.80;63.70;;;;;;5052334;28;20188;-55
2023/07/01 01:32:10;;;;;;;0.10;0.10;;;13.80;63.60;;;;;;5053218;28;20211;-58
2023/07/01 01:34:41;;;;;;;0.10;0.10;;;13.80;63.70;;;;;;5060241;28;20218;-56
2023/07/01 01:37:16;;;;;;;0.10;0.10;;;13.80;63.60;;;;;;5073968;28;20218;-53
2023/07/01 01:39:51;;;;;;;0.10;0.10;;;13.90;63.60;;;;;;5073371;28;20218;-54
2023/07/01 01:42:27;;;;;;;0.10;0.10;;;13.90;63.60;;;;;;5073370;28;20589;-51
2023/07/01 01:45:00;;;;;;;0.10;0.10;;;13.90;63.50;;;;;;5073301;28;20210;-56
2023/07/01 01:47:33;;;;;;;0.10;0.10;;;13.90;63.50;;;;;;5073682;28;20209;-55
2023/07/01 01:50:12;;;;;;;0.10;0.10;;;14.00;63.50;;;;;;5073616;28;20225;-55
2023/07/01 01:52:44;;;;;;;0.10;0.10;;;14.00;63.40;;;;;;5063250;28;20611;-57
2023/07/01 01:55:16;;;;;;;0.10;0.10;;;14.00;63.40;;;;;;5053601;28;20206;-58
2023/07/01 01:57:47;;;;;;;0.10;0.10;;;14.00;63.40;;;;;;5052407;28;20198;-58
2023/07/01 02:00:20;;;;;;;0.10;0.10;;;14.00;63.40;;;;;;5052953;28;20580;-57
2023/07/01 02:02:51;;;;;;;0.10;0.10;;;14.10;63.50;;;;;;5052761;28;20726;-54
2023/07/01 02:05:22;;;;;;;0.13;0.13;;;14.10;63.50;;;;;;5064892;28;20206;-54
2023/07/01 02:07:52;;;;;;;0.10;0.10;;;14.10;63.40;;;;;;5071935;28;20217;-58
2023/07/01 02:10:23;;;;;;;0.10;0.10;;;14.20;63.50;;;;;;5072804;28;20647;-55
2023/07/01 02:12:53;;;;;;;0.10;0.10;;;14.20;63.40;;;;;;5072409;28;20226;-56
2023/07/01 02:15:26;;;;;;;0.10;0.10;;;14.20;63.40;;;;;;5072529;28;20199;-55
2023/07/01 02:17:57;;;;;;;0.10;0.10;;;14.20;63.40;;;;;;5059438;28;20199;-52
2023/07/01 02:20:27;;;;;;;0.10;0.10;;;14.30;63.40;;;;;;5053020;28;20227;-53
2023/07/01 02:22:58;;;;;;;0.10;0.10;;;14.30;63.40;;;;;;5052688;28;20692;-55
2023/07/01 02:25:28;;;;;;;0.10;0.10;;;14.30;63.40;;;;;;5052518;28;20200;-57
2023/07/01 02:27:59;;;;;;;0.10;0.10;;;14.30;63.30;;;;;;5052874;28;20222;-52
2023/07/01 02:30:34;;;;;;;0.20;0.20;;;14.30;63.30;;;;;;5052629;28;20243;-58
2023/07/01 02:33:05;;;;;;;0.10;0.10;;;14.40;63.30;;;;;;5052644;28;20589;-53
2023/07/01 02:35:35;;;;;;;0.10;0.10;;;14.40;63.30;;;;;;5066773;28;20202;-55
2023/07/01 02:38:06;;;;;;;0.10;0.10;;;14.50;63.30;;;;;;5072940;28;20239;-56
2023/07/01 02:40:37;;;;;;;0.10;0.10;;;14.50;63.30;;;;;;5072514;28;20234;-50
2023/07/01 02:43:07;;;;;;;0.10;0.10;;;14.50;63.30;;;;;;5068287;28;20207;-59
2023/07/01 02:45:40;;;;;;;0.10;0.10;;;14.50;63.20;;;;;;5052092;28;20250;-58
2023/07/01 02:48:10;;;;;;;0.10;0.10;;;14.50;63.10;;;;;;5052510;28;20442;-54
2023/07/01 02:50:41;;;;;;;0.10;0.10;;;14.60;63.10;;;;;;5052508;28;20726;-54
2023/07/01 02:53:12;;;;;;;0.10;0.10;;;14.50;63.00;;;;;;5052124;28;20200;-58
2023/07/01 02:55:42;;;;;;;0.10;0.10;;;14.60;63.00;;;;;;5052333;28;20191;-55
2023/07/01 02:58:13;;;;;;;0.03;0.03;;;14.60;63.00;;;;;;5052469;28;20322;-51
2023/07/01 03:00:45;;;;;;;0.10;0.10;;;14.70;62.90;;;;;;5051967;28;20231;-55
2023/07/01 03:03:17;;;;;;;0.10;0.10;;;14.70;62.90;;;;;;5052276;28;20202;-52
2023/07/01 03:05:47;;;;;;;0.10;0.10;;;14.70;62.90;;;;;;5067699;28;20198;-53
2023/07/01 03:08:18;;;;;;;0.10;0.10;;;14.70;63.00;;;;;;5071904;28;20195;-52
2023/07/01 03:10:49;;;;;;;0.10;0.10;;;14.80;63.00;;;;;;5072026;28;20206;-52
2023/07/01 03:13:19;;;;;;;0.10;0.10;;;14.80;63.00;;;;;;5072081;28;20205;-56
2023/07/01 03:15:52;;;;;;;0.10;0.10;;;14.80;63.00;;;;;;5071885;28;20198;-55
2023/07/01 03:18:22;;;;;;;0.10;0.10;;;14.80;63.00;;;;;;5071568;28;20195;-59
2023/07/01 03:20:53;;;;;;;0.10;0.10;;;14.90;63.00;;;;;;5071558;28;20230;-55
2023/07/01 03:23:24;;;;;;;0.10;0.10;;;14.90;62.90;;;;;;5071585;28;20198;-56
2023/07/01 03:25:54;;;;;;;0.10;0.10;;;14.90;62.90;;;;;;5071628;28;20194;-52
2023/07/01 03:28:25;;;;;;;0.10;0.10;;;15.00;62.90;;;;;;5072063;28;20199;-57
2023/07/01 03:30:57;;;;;;;0.10;0.10;;;14.90;62.80;;;;;;5071572;28;20195;-55
2023/07/01 03:33:28;;;;;;;0.10;0.10;;;15.00;62.90;;;;;;5072001;28;20198;-59
2023/07/01 03:35:59;;;;;;;0.13;0.13;;;15.10;62.90;;;;;;5071587;28;20218;-58
2023/07/01 03:38:29;;;;;;;0.10;0.10;;;15.10;63.00;;;;;;5072049;28;20256;-55
2023/07/01 03:41:00;;;;;;;0.10;0.10;;;15.10;63.70;;;;;;5051986;28;20226;-56
2023/07/01 03:43:30;;;;;;;0.10;0.10;;;15.10;62.80;;;;;;5051519;28;20196;-58
2023/07/01 03:46:03;;;;;;;0.10;0.10;;;15.20;62.80;;;;;;5051303;28;20207;-56
2023/07/01 03:48:34;;;;;;;0.10;0.10;;;15.20;62.70;;;;;;5051398;28;20199;-57
2023/07/01 03:51:04;;;;;;;0.10;0.10;;;15.20;62.60;;;;;;5050928;28;20274;-57
2023/07/01 03:53:35;;;;;;;0.10;0.10;;;15.30;62.60;;;;;;5051171;28;20246;-56
2023/07/01 03:56:06;;;;;;;0.10;0.10;;;15.30;62.60;;;;;;5051249;28;20199;-56
2023/07/01 03:58:37;;;;;;;0.00;0.00;;;15.30;62.50;;;;;;5050443;28;20659;-56
2023/07/01 04:01:09;;;;;;;0.00;0.00;;;15.30;62.50;;;;;;5050598;28;20227;-58
2023/07/01 04:03:41;;;;;;;0.10;0.10;;;15.40;62.50;;;;;;5051357;28;20195;-55
2023/07/01 04:06:11;;;;;;;0.00;0.00;;;15.40;62.40;;;;;;5068370;28;20202;-58
2023/07/01 04:08:42;;;;;;;0.10;0.10;;;15.40;62.40;;;;;;5051128;28;20191;-57
2023/07/01 04:11:13;;;;;;;0.10;0.10;;;15.40;62.30;;;;;;5051316;28;20211;-58
2023/07/01 04:13:43;;;;;;;0.08;0.08;;;15.40;62.20;;;;;;5051318;28;20218;-58
2023/07/01 04:16:16;;;;;;;0.10;0.10;;;15.40;62.10;;;;;;5051315;28;20203;-56
2023/07/01 04:18:46;;;;;;;0.10;0.10;;;15.50;62.00;;;;;;5050861;28;20199;-56
2023/07/01 04:21:21;;;;;;;0.10;0.10;;;15.50;61.80;;;;;;5050866;28;20231;-58
2023/07/01 04:23:52;;;;;;;0.10;0.10;;;15.50;61.80;;;;;;5051519;28;20201;-53
2023/07/01 04:26:24;;;;;;;0.10;0.10;;;15.50;61.70;;;;;;5050662;28;20192;-56
2023/07/01 04:28:54;;;;;;;0.10;0.10;;;15.50;61.60;;;;;;5051239;28;20242;-57
2023/07/01 04:31:27;;;;;;;0.10;0.10;;;15.50;61.60;;;;;;5054667;28;20222;-56
2023/07/01 04:33:58;;;;;;;0.00;0.00;;;15.60;61.60;;;;;;5055918;28;20596;-56
2023/07/01 04:36:29;;;;;;;0.10;0.10;;;15.60;61.60;;;;;;5075854;28;20202;-54
2023/07/01 04:38:59;;;;;;;0.00;0.00;;;15.60;61.60;;;;;;5073822;28;20218;-53
2023/07/01 04:41:32;;;;;;;0.10;0.10;;;15.60;61.60;;;;;;5054114;28;20215;-57
2023/07/01 04:44:03;;;;;;;0.10;0.10;;;15.60;61.60;;;;;;5053843;28;20271;-53
2023/07/01 04:46:35;;;;;;;0.10;0.10;;;15.60;61.50;;;;;;5054636;28;20211;-54
2023/07/01 04:49:08;;;;;;;0.10;0.10;;;15.60;61.50;;;;;;5054366;28;20200;-57
2023/07/01 04:51:39;;;;;;;0.10;0.10;;;15.60;61.50;;;;;;5054749;28;20691;-57
2023/07/01 04:54:10;;;;;;;0.10;0.10;;;15.60;61.40;;;;;;5054873;28;20200;-57
2023/07/01 04:56:41;;;;;;;0.10;0.10;;;15.60;61.40;;;;;;5054790;28;20230;-51
2023/07/01 04:59:11;;;;;;;0.10;0.10;;;15.60;61.40;;;;;;5053907;28;20199;-56
2023/07/01 05:01:44;;;;;;;0.10;0.10;;;15.60;61.40;;;;;;5053892;28;20709;-54
2023/07/01 05:04:14;;;;;;;0.00;0.00;;;15.60;61.40;;;;;;5057165;28;20221;-52
2023/07/01 05:06:45;;;;;;;0.15;0.15;;;15.60;61.40;;;;;;5074308;28;20199;-56
2023/07/01 05:09:16;;;;;;;0.10;0.10;;;15.60;61.30;;;;;;5074333;28;20221;-52
2023/07/01 05:11:46;;;;;;;0.10;0.10;;;15.60;61.30;;;;;;5074279;28;20225;-54
2023/07/01 05:14:17;;;;;;;0.20;0.20;;;15.50;61.20;;;;;;5074133;28;20195;-52
2023/07/01 05:16:50;;;;;;;0.10;0.10;;;15.60;61.30;;;;;;5074169;28;20458;-53
2023/07/01 05:19:20;;;;;;;0.10;0.10;;;15.60;61.20;;;;;;5074273;28;20195;-56
2023/07/01 05:21:53;;;;;;;0.10;0.10;;;15.50;61.10;;;;;;5074262;28;20497;-57
2023/07/01 05:24:24;;;;;;;0.10;0.10;;;15.50;61.10;;;;;;5074198;28;20202;-52
2023/07/01 05:26:55;;;;;;;0.10;0.10;;;15.50;61.10;;;;;;5074249;28;20202;-51
2023/07/01 05:29:28;;;;;;;0.10;0.10;;;15.50;61.10;;;;;;5073414;28;20565;-53
2023/07/01 05:32:01;;;;;;;0.10;0.10;;;15.50;61.00;;;;;;5074016;28;20265;-56
2023/07/01 05:34:33;;;;;;;0.10;0.10;;;15.50;61.00;;;;;;5074042;28;20198;-55
2023/07/01 05:37:04;;;;;;;0.05;0.05;;;15.50;60.90;;;;;;5074735;28;20642;-55
2023/07/01 05:39:34;;;;;;;0.20;0.20;;;15.50;60.90;;;;;;5073726;28;20673;-55
2023/07/01 05:42:05;;;;;;;0.10;0.10;;;15.50;60.90;;;;;;5060499;28;20214;-57
2023/07/01 05:44:36;;;;;;;0.10;0.10;;;15.50;60.90;;;;;;5053239;28;20560;-51
2023/07/01 05:47:09;;;;;;;0.10;0.10;;;15.50;60.90;;;;;;5053508;28;20211;-49
2023/07/01 05:49:39;;;;;;;0.10;0.10;;;15.40;60.90;;;;;;5053398;28;20199;-51
2023/07/01 05:52:10;;;;;;;0.10;0.10;;;15.40;60.90;;;;;;5053880;28;20695;-55
2023/07/01 05:54:41;;;;;;;0.10;0.10;;;15.40;60.80;;;;;;5053586;28;20210;-57
2023/07/01 05:57:12;;;;;;;0.10;0.10;;;15.50;60.90;;;;;;5053604;28;20606;-58
2023/07/01 05:59:42;;;;;;;0.10;0.10;;;15.40;60.90;;;;;;5053269;28;20214;-58
2023/07/01 06:02:17;;;;;;;0.10;0.10;;;15.40;60.80;;;;;;5052932;28;20216;-57
2023/07/01 06:04:48;;;;;;;0.03;0.03;;;15.40;60.80;;;;;;5060711;28;20691;-51
2023/07/01 06:07:19;;;;;;;0.17;0.17;;;15.40;60.80;;;;;;5070569;28;20614;-55
2023/07/01 06:09:52;;;;;;;0.10;0.10;;;15.40;60.80;;;;;;5051142;28;20576;-52
2023/07/01 06:12:23;;;;;;;0.10;0.10;;;15.40;60.90;;;;;;5052992;28;20230;-59
2023/07/01 06:14:54;;;;;;;0.10;0.10;;;15.40;60.80;;;;;;5052783;28;20187;-55
2023/07/01 06:17:26;;;;;;;0.10;0.10;;;15.40;60.80;;;;;;5053193;28;20199;-49
2023/07/01 06:19:57;;;;;;;0.10;0.10;;;15.40;60.80;;;;;;5053060;28;20230;-55
2023/07/01 06:22:27;;;;;;;0.10;0.10;;;15.30;60.70;;;;;;5053223;28;20222;-57
2023/07/01 06:24:58;;;;;;;0.10;0.10;;;15.40;60.70;;;;;;5049996;28;20200;-55
2023/07/01 06:27:29;;;;;;;0.10;0.10;;;15.30;61.40;;;;;;5055852;28;20195;-54
2023/07/01 06:29:59;;;;;;;0.10;0.10;;;15.30;60.70;;;;;;5052233;28;20229;-54
2023/07/01 06:32:32;;;;;;;0.10;0.10;;;15.30;60.60;;;;;;5045369;28;20691;-57
2023/07/01 06:35:02;;;;;;;0.10;0.10;;;15.30;60.60;;;;;;5043314;28;20196;-57
2023/07/01 06:37:33;;;;;;;0.10;0.10;;;15.30;60.60;;;;;;5043639;28;20655;-56
2023/07/01 06:40:04;;;;;;;0.10;0.10;;;15.30;60.60;;;;;;5032550;28;20215;-56
2023/07/01 06:42:34;;;;;;;0.10;0.10;;;15.30;60.60;;;;;;5035387;28;20725;-60
2023/07/01 06:45:05;;;;;;;0.10;0.10;;;15.30;60.60;;;;;;5052319;28;20677;-56
2023/07/01 06:47:38;;;;;;;0.08;0.08;;;15.20;60.50;;;;;;5051170;28;20200;-57
2023/07/01 06:50:09;;;;;;;0.17;0.17;;;15.20;60.50;;;;;;5051577;28;20202;-52
2023/07/01 06:52:40;;;;;;;0.10;0.10;;;15.20;60.50;;;;;;5042255;28;20204;-55
2023/07/01 06:55:13;;;;;;;0.08;0.08;;;15.20;60.50;;;;;;5041804;28;20644;-58
2023/07/01 06:57:44;;;;;;;0.10;0.10;;;15.20;60.40;;;;;;5043269;28;20191;-60
2023/07/01 07:00:16;;;;;;;0.10;0.10;;;15.20;60.40;;;;;;5040949;28;20216;-60
2023/07/01 07:02:48;;;;;;;0.10;0.10;;;15.20;60.40;;;;;;5042441;28;20892;-55
2023/07/01 07:05:19;;;;;;;0.10;0.10;;;15.20;60.40;;;;;;5043770;28;20214;-51
2023/07/01 07:07:49;;;;;;;0.10;0.10;;;15.20;60.30;;;;;;5043832;28;20648;-49
2023/07/01 07:10:20;;;;;;;0.10;0.10;;;15.20;60.40;;;;;;5047316;28;20195;-58
2023/07/01 07:12:51;;;;;;;0.10;0.10;;;15.20;60.30;;;;;;5050060;28;20262;-55
2023/07/01 07:15:22;;;;;;;0.10;0.10;;;15.20;60.40;;;;;;5050813;28;20199;-59
2023/07/01 07:17:54;;;;;;;0.10;0.10;;;15.20;60.40;;;;;;5051163;28;20533;-57
2023/07/01 07:20:25;;;;;;;0.10;0.10;;;15.20;60.40;;;;;;5051059;28;20219;-54
2023/07/01 07:22:55;;;;;;;0.10;0.10;;;15.20;60.40;;;;;;5051033;28;20219;-55
2023/07/01 07:25:26;;;;;;;0.10;0.10;;;15.20;60.40;;;;;;5051477;28;20203;-54
2023/07/01 07:27:57;;;;;;;0.10;0.10;;;15.20;60.30;;;;;;5050256;28;20199;-54
2023/07/01 07:30:28;;;;;;;0.10;0.10;;;15.20;60.30;;;;;;5051199;28;20214;-52
2023/07/01 07:33:00;;;;;;;0.10;0.10;;;15.10;60.10;;;;;;5051361;28;20215;-59
2023/07/01 07:35:31;;;;;;;0.10;0.10;;;15.10;60.20;;;;;;5065046;28;20202;-56
2023/07/01 07:38:01;;;;;;;0.10;0.10;;;15.10;60.20;;;;;;5071702;28;20198;-57
2023/07/01 07:40:32;;;;;;;0.05;0.05;;;15.10;60.20;;;;;;5070891;28;20238;-59
2023/07/01 07:43:10;;;;;;;0.10;0.10;;;15.10;60.20;;;;;;5070740;28;20222;-57
2023/07/01 07:45:40;;;;;;;0.20;0.20;;;15.10;60.20;;;;;;5071210;28;20206;-55
2023/07/01 07:48:13;;;;;;;0.10;0.10;;;15.10;60.10;;;;;;5071412;28;20643;-58
2023/07/01 07:50:43;;;;;;;0.20;0.20;;;15.10;60.10;;;;;;5070896;28;20214;-55
2023/07/01 07:53:15;;;;;;;0.10;0.10;;;15.10;60.10;;;;;;5071837;28;20198;-51
2023/07/01 07:55:45;;;;;;;0.10;0.10;;;15.10;60.10;;;;;;5071774;28;20219;-52
2023/07/01 07:58:16;;;;;;;0.10;0.10;;;15.10;60.10;;;;;;5050531;28;20191;-56
2023/07/01 08:00:46;;;;;;;0.00;0.00;;;15.00;60.00;;;;;;5050644;28;20573;-54
2023/07/01 08:03:19;;;;;;;0.10;0.10;;;15.10;60.00;;;;;;5050769;28;20356;-53
2023/07/01 08:05:52;;;;;;;0.10;0.10;;;15.10;60.00;;;;;;5065945;28;20195;-53
2023/07/01 08:08:22;;;;;;;0.10;0.10;;;15.00;60.00;;;;;;5060587;28;20195;-53
2023/07/01 08:10:53;;;;;;;0.15;0.15;;;15.00;59.90;;;;;;5050950;28;20199;-55
2023/07/01 08:13:24;;;;;;;0.10;0.10;;;15.00;60.00;;;;;;5050332;28;20199;-55
2023/07/01 08:15:54;;;;;;;0.10;0.10;;;15.00;60.00;;;;;;5050713;28;20195;-52
2023/07/01 08:18:27;;;;;;;0.10;0.10;;;15.00;59.90;;;;;;5051184;28;20191;-55
2023/07/01 08:20:58;;;;;;;0.10;0.10;;;15.00;59.90;;;;;;5050607;28;20226;-52
2023/07/01 08:23:28;;;;;;;0.10;0.10;;;15.00;59.90;;;;;;5051062;28;20206;-57
2023/07/01 08:25:59;;;;;;;0.10;0.10;;;15.00;59.90;;;;;;5050608;28;20680;-57
2023/07/01 08:28:31;;;;;;;0.10;0.10;;;14.90;59.80;;;;;;5051269;28;20196;-56
2023/07/01 08:31:02;;;;;;;0.10;0.10;;;15.00;59.80;;;;;;5051032;28;20200;-55
2023/07/01 08:33:35;;;;;;;0.08;0.08;;;14.90;59.80;;;;;;5051299;28;20218;-55
2023/07/01 08:36:05;;;;;;;0.10;0.10;;;14.90;59.70;;;;;;5069362;28;20625;-54
2023/07/01 08:38:36;;;;;;;0.05;0.05;;;15.00;59.80;;;;;;5071377;28;20199;-52
2023/07/01 08:41:08;;;;;;;0.13;0.13;;;14.90;59.80;;;;;;5070063;28;20222;-57
2023/07/01 08:43:41;;;;;;;0.10;0.10;;;14.90;59.80;;;;;;5071025;28;20186;-56
2023/07/01 08:46:12;;;;;;;0.10;0.10;;;14.90;59.80;;;;;;5070184;28;20724;-55
2023/07/01 08:48:45;;;;;;;0.20;0.20;;;14.90;59.80;;;;;;5070856;28;20194;-54
2023/07/01 08:51:21;;;;;;;0.10;0.10;;;14.90;59.80;;;;;;5070952;28;20226;-55
2023/07/01 08:53:53;;;;;;;0.00;0.00;;;14.90;59.80;;;;;;5066539;28;20187;-58
2023/07/01 08:56:24;;;;;;;0.10;0.10;;;14.90;59.80;;;;;;5049861;28;20261;-52
2023/07/01 08:58:55;;;;;;;0.10;0.10;;;14.80;59.80;;;;;;5049975;28;20222;-55
2023/07/01 09:01:25;;;;;;;0.10;0.10;;;14.90;59.80;;;;;;5049702;28;20235;-56
2023/07/01 09:03:58;;;;;;;0.10;0.10;;;14.80;59.80;;;;;;5051195;28;20203;-56
2023/07/01 09:06:29;;;;;;;0.10;0.10;;;14.80;59.80;;;;;;5070808;28;20191;-55
2023/07/01 09:08:59;;;;;;;0.20;0.20;;;14.80;59.80;;;;;;5071225;28;20244;-55
2023/07/01 09:11:30;;;;;;;0.13;0.13;;;14.80;59.80;;;;;;5070311;28;20211;-56
2023/07/01 09:14:02;;;;;;;0.20;0.20;;;14.80;59.80;;;;;;5070854;28;20686;-56
2023/07/01 09:16:37;;;;;;;0.10;0.10;;;14.90;59.90;;;;;;5072366;28;20278;-54
2023/07/01 09:19:16;;;;;;;0.10;0.10;;;14.80;59.80;;;;;;5073927;28;20195;-52
2023/07/01 09:21:47;;;;;;;0.20;0.20;;;14.80;59.70;;;;;;5062808;28;20378;-51
2023/07/01 09:24:18;;;;;;;0.10;0.10;;;14.80;59.80;;;;;;5042392;28;20193;-53
2023/07/01 09:26:56;;;;;;;0.13;0.13;;;14.80;59.80;;;;;;5043200;28;20190;-54
2023/07/01 09:29:35;;;;;;;0.20;0.20;;;14.80;59.80;;;;;;5043672;28;20188;-59
2023/07/01 09:32:08;;;;;;;0.20;0.20;;;14.80;59.80;;;;;;5043173;28;20211;-52
2023/07/01 09:34:59;;;;;;;0.13;0.13;;;14.80;59.80;;;;;;5042769;28;20192;-56
2023/07/01 09:37:30;;;;;;;0.10;0.10;;;14.80;59.80;;;;;;5042406;28;20614;-51
2023/07/01 09:40:18;;;;;;;0.20;0.20;;;14.80;59.70;;;;;;5046828;28;20223;-50
2023/07/01 09:42:54;;;;;;;0.10;0.10;;;14.80;59.80;;;;;;5043913;28;20228;-53
2023/07/01 09:45:25;;;;;;;0.10;0.10;;;14.80;59.70;;;;;;5041006;28;20555;-54
2023/07/01 09:47:56;;;;;;;0.17;0.17;;;14.80;59.70;;;;;;5043228;28;20196;-55
2023/07/01 09:50:30;;;;;;;0.10;0.10;;;14.80;59.70;;;;;;5045549;28;20211;-55
2023/07/01 09:53:04;;;;;;;0.17;0.17;;;14.80;59.70;;;;;;5042023;28;20274;-56
2023/07/01 09:55:35;;;;;;;0.10;0.10;;;14.80;59.70;;;;;;5043870;28;20199;-56
2023/07/01 09:58:06;;;;;;;0.00;0.00;;;14.80;59.70;;;;;;5042296;28;20242;-57
2023/07/01 10:00:38;;;;;;;0.08;0.08;;;14.80;59.70;;;;;;5042527;28;20692;-52
2023/07/01 10:03:08;;;;;;;0.10;0.10;;;14.80;59.70;;;;;;5042768;28;20231;-59
2023/07/01 10:05:42;;;;;;;0.10;0.10;;;14.80;59.70;;;;;;5044161;28;20190;-57
2023/07/01 10:08:12;;;;;;;0.10;0.10;;;14.80;59.70;;;;;;5045783;28;20184;-56
2023/07/01 10:10:43;;;;;;;0.10;0.10;;;14.80;59.70;;;;;;5043867;28;20192;-55
2023/07/01 10:13:15;;;;;;;0.20;0.20;;;14.80;59.70;;;;;;5045495;28;20667;-56
2023/07/01 10:15:46;;;;;;;0.10;0.10;;;14.70;60.40;;;;;;5042479;28;20494;-55
2023/07/01 10:18:26;;;;;;;0.10;0.10;;;14.70;59.70;;;;;;5040994;28;20546;-56
2023/07/01 10:21:40;;;;;;;0.10;0.10;;;14.70;59.80;;;;;;5043202;28;20196;-56
2023/07/01 10:24:11;;;;;;;0.10;0.10;;;14.70;59.70;;;;;;5036597;28;20275;-52
2023/07/01 10:26:46;;;;;;;0.10;0.10;;;14.70;59.70;;;;;;5041202;28;20211;-57
2023/07/01 10:29:41;;;;;;;0.10;0.10;;;14.70;59.70;;;;;;5040055;28;20234;-58
2023/07/01 10:32:36;;;;;;;0.10;0.10;;;14.70;59.60;;;;;;5043446;28;20581;-58
2023/07/01 10:35:15;;;;;;;0.00;0.00;;;14.70;59.60;;;;;;5041754;28;20195;-54
2023/07/01 10:38:23;;;;;;;0.10;0.10;;;14.70;59.60;;;;;;5042301;28;20223;-57
2023/07/01 10:40:55;;;;;;;0.20;0.20;;;14.70;59.70;;;;;;5041059;28;20214;-52
2023/07/01 10:43:30;;;;;;;0.05;0.05;;;14.70;59.70;;;;;;5042409;28;20595;-55
2023/07/01 10:46:23;;;;;;;0.10;0.10;;;14.70;59.70;;;;;;5044276;28;20191;-55
2023/07/01 10:49:11;;;;;;;0.10;0.10;;;14.70;59.70;;;;;;5042476;28;20199;-54
2023/07/01 10:52:09;;;;;;;0.10;0.10;;;14.70;59.70;;;;;;5042390;28;20220;-56
2023/07/01 10:54:41;;;;;;;0.10;0.10;;;14.60;59.70;;;;;;5041757;28;20651;-55
2023/07/01 10:57:18;;;;;;;0.10;0.10;;;14.60;59.70;;;;;;5042018;28;20195;-56
2023/07/01 10:59:48;;;;;;;0.10;0.10;;;14.60;59.70;;;;;;5041697;28;20246;-53
2023/07/01 11:02:39;;;;;;;0.10;0.10;;;14.60;59.70;;;;;;5041717;28;20216;-52
2023/07/01 11:05:11;;;;;;;0.10;0.10;;;14.60;59.70;;;;;;5042892;28;20550;-57
2023/07/01 11:07:43;;;;;;;0.10;0.10;;;14.60;59.70;;;;;;5041727;28;20202;-59
2023/07/01 11:10:16;;;;;;;0.10;0.10;;;14.60;59.70;;;;;;5041184;28;20188;-53
2023/07/01 11:12:47;;;;;;;0.10;0.10;;;14.60;59.70;;;;;;5041592;28;20203;-53
2023/07/01 11:15:20;;;;;;;0.10;0.10;;;14.60;59.70;;;;;;5042957;28;20191;-51
2023/07/01 11:17:58;;;;;;;0.20;0.20;;;14.60;59.70;;;;;;5042438;28;20191;-51
2023/07/01 11:20:29;;;;;;;0.10;0.10;;;14.60;59.70;;;;;;5040334;28;20191;-58
2023/07/01 11:22:59;;;;;;;0.10;0.10;;;14.60;59.70;;;;;;5040489;28;20215;-54
2023/07/01 11:25:32;;;;;;;0.10;0.10;;;14.60;59.70;;;;;;5039734;28;20682;-56
2023/07/01 11:28:02;;;;;;;0.10;0.10;;;14.50;59.60;;;;;;5040256;28;20188;-58
2023/07/01 11:30:34;;;;;;;0.10;0.10;;;14.60;59.60;;;;;;5040047;28;20200;-58
2023/07/01 11:33:16;;;;;;;0.17;0.17;;;14.60;59.70;;;;;;5042190;28;20683;-51
2023/07/01 11:35:53;;;;;;;0.10;0.10;;;14.60;59.60;;;;;;5043118;28;20312;-56
2023/07/01 11:38:29;;;;;;;0.10;0.10;;;14.50;59.60;;;;;;5042942;28;20220;-59
2023/07/01 11:41:03;;;;;;;0.10;0.10;;;14.50;59.60;;;;;;5038486;28;20187;-57
2023/07/01 11:43:34;;;;;;;0.10;0.10;;;14.50;59.60;;;;;;5040653;28;20224;-59
2023/07/01 11:46:05;;;;;;;0.10;0.10;;;14.50;60.20;;;;;;5038840;28;20202;-58
2023/07/01 11:48:36;;;;;;;0.10;0.10;;;14.50;59.60;;;;;;5041676;28;20192;-58
2023/07/01 11:51:07;;;;;;;0.10;0.10;;;14.50;59.60;;;;;;5040244;28;20184;-59
2023/07/01 11:53:56;;;;;;;0.10;0.10;;;14.50;59.60;;;;;;5041615;28;20203;-59
2023/07/01 11:56:29;;;;;;;0.10;0.10;;;14.50;59.70;;;;;;5041426;28;20233;-59
2023/07/01 11:59:00;;;;;;;0.10;0.10;;;14.50;59.60;;;;;;5045171;28;20194;-58
2023/07/01 12:01:31;;;;;;;0.13;0.13;;;14.50;59.60;;;;;;5041322;28;20679;-60
2023/07/01 12:04:02;;;;;;;0.10;0.10;;;14.50;59.60;;;;;;5045128;28;20277;-57
2023/07/01 12:06:34;;;;;;;0.10;0.10;;;14.50;59.60;;;;;;5043439;28;20187;-59
2023/07/01 12:09:08;;;;;;;0.10;0.10;;;14.50;59.60;;;;;;5039088;28;20189;-56
2023/07/01 12:11:49;;;;;;;0.10;0.10;;;14.50;59.60;;;;;;5041829;28;20214;-56
2023/07/01 12:14:21;;;;;;;0.20;0.20;;;14.40;59.60;;;;;;5039971;28;20203;-59
2023/07/01 12:16:52;;;;;;;0.10;0.10;;;14.50;59.60;;;;;;5041690;28;20283;-56
2023/07/01 12:19:24;;;;;;;0.10;0.10;;;14.40;59.60;;;;;;5039302;28;20199;-59
2023/07/01 12:21:56;;;;;;;0.10;0.10;;;14.40;59.60;;;;;;5041448;28;20602;-57
2023/07/01 12:24:28;;;;;;;0.10;0.10;;;14.40;59.60;;;;;;5039228;28;20239;-59
2023/07/01 12:27:02;;;;;;;0.10;0.10;;;14.40;59.60;;;;;;5040680;28;20223;-59
2023/07/01 12:29:33;;;;;;;0.10;0.10;;;14.40;59.60;;;;;;5041264;28;20610;-60
2023/07/01 12:32:04;;;;;;;0.10;0.10;;;14.40;59.60;;;;;;5040731;28;20215;-56
2023/07/01 12:34:35;;;;;;;0.10;0.10;;;14.40;59.60;;;;;;5042463;28;20253;-60
2023/07/01 12:37:06;;;;;;;0.10;0.10;;;14.40;59.60;;;;;;5043259;28;20604;-60
2023/07/01 12:39:37;;;;;;;0.10;0.10;;;14.40;59.60;;;;;;5038477;28;20200;-57
2023/07/01 12:42:10;;;;;;;0.20;0.20;;;14.40;59.60;;;;;;5040053;28;20698;-59
2023/07/01 12:44:43;;;;;;;0.10;0.10;;;14.40;59.60;;;;;;5040017;28;20188;-59
2023/07/01 12:47:14;;;;;;;0.10;0.10;;;14.40;59.50;;;;;;5038728;28;20675;-60
2023/07/01 12:49:44;;;;;;;0.10;0.10;;;14.30;59.50;;;;;;5039752;28;20196;-59
2023/07/01 12:52:15;;;;;;;0.10;0.10;;;14.30;59.50;;;;;;5042912;28;20582;-57
2023/07/01 12:54:46;;;;;;;0.10;0.10;;;14.30;59.50;;;;;;5044055;28;20192;-60
2023/07/01 12:57:21;;;;;;;0.10;0.10;;;14.30;59.50;;;;;;5045589;28;20192;-59
2023/07/01 12:59:54;;;;;;;0.10;0.10;;;14.30;59.50;;;;;;5044536;28;20196;-54
2023/07/01 13:02:25;;;;;;;0.10;0.10;;;14.30;59.50;;;;;;5043273;28;20218;-60
2023/07/01 13:05:01;;;;;;;0.10;0.10;;;14.30;59.50;;;;;;5046190;28;20188;-48
2023/07/01 13:07:33;;;;;;;0.10;0.10;;;14.20;59.40;;;;;;5044401;28;20232;-51
2023/07/01 13:10:04;;;;;;;0.10;0.10;;;14.30;59.50;;;;;;5042981;28;20203;-54
2023/07/01 13:12:40;;;;;;;0.10;0.10;;;14.20;59.40;;;;;;5042976;28;20219;-51
2023/07/01 13:15:29;;;;;;;0.10;0.10;;;14.20;59.40;;;;;;5043796;28;20206;-55